Guyang, China
Current Conditions -  °F | °C
As of 1:00 AM on Saturday 25 Oct 2014 (Local Time) from ZBHH Reporting Station
Clear Clear  
Wind Chill: 40°   Ceiling: Unl
Heat Index: 43°   Visibility: 4mi
Dew Point: 34°   Wind: 4mph
Humidity: 70%   Direction: 40°NE
Pressure: 29.94"   Gusts: NA
Location:  41.03°N, 110.05°E
Report Text: ZBHH 241700Z 04002MPS 6000 NSC 06/01 Q1014 NOSIG
Loading
Personal Weather Stations






























Interactive Weather Map
Tropical Storm Tracking
New forecast layout! Learn more

10-Day Weather Forecast

Advertisements
Track Severe Weather on mobile